Alloway, New Jersey
Current Conditions -  °F | °C
As of 10:51 PM on Thursday 27 Nov 2014 (Local Time) from KILG Reporting Station
Clear Clear  
Wind Chill: 24°   Ceiling: Unl
Heat Index: 30°   Visibility: 10mi
Dew Point: 26°   Wind: 6mph
Humidity: 85%   Direction: 280°W
Pressure: 30.14"   Gusts: NA
Location:  39.56°N, 75.36°W
Report Text: KILG 280351Z AUTO 28005KT 10SM CLR M01/M03 A3014 RMK AO2 SLP207 T10111033
Loading
Personal Weather Stations






























Interactive Weather Map New forecast layout! Learn more

10-Day Weather Forecast

Advertisements
Track Severe Weather on mobile